Data for 01/17/2016

Time Sea-Level Adjusted Pressure Absolute Pressure Temperature Relative Humidity Dew Point   
(mb) (inHg) (mb) (inHg) (C) (F) (%) (C) (F)
00:05 1014 29.94 843 24.89 -4.5 23.9 92 -5.6 22
00:10 1014 29.94 844 24.92 -4.5 23.8 93 -5.5 22.1
00:15 1014 29.94 844 24.92 -4.4 24 93 -5.4 22.2
00:20 1014 29.94 844 24.92 -4.4 24.1 93 -5.4 22.3
00:25 1014 29.94 844 24.92 -4.3 24.3 93 -5.3 22.4
00:30 1014 29.94 844 24.92 -4.3 24.2 93 -5.4 22.4
00:35 1014 29.94 844 24.92 -4.3 24.2 93 -5.4 22.3
00:40 1015 29.97 844 24.92 -4.4 24.2 93 -5.4 22.3
00:45 1015 29.97 844 24.92 -4.4 24.1 93 -5.4 22.3
00:50 1015 29.97 844 24.92 -4.3 24.2 93 -5.3 22.4
00:55 1015 29.97 844 24.92 -4.3 24.3 92 -5.3 22.4
01:00 1015 29.97 844 24.92 -4.3 24.3 93 -5.3 22.4
01:05 1015 29.97 844 24.92 -4.2 24.5 92 -5.3 22.5
01:10 1015 29.97 844 24.92 -4.1 24.6 92 -5.2 22.6
01:15 1015 29.97 844 24.92 -4 24.7 92 -5.2 22.6
01:20 1015 29.97 844 24.92 -4 24.8 91 -5.3 22.5
01:25 1015 29.97 844 24.92 -4 24.8 91 -5.3 22.5
01:30 1015 29.97 844 24.92 -4 24.8 91 -5.3 22.5
01:35 1015 29.97 844 24.92 -4.1 24.7 91 -5.3 22.5
01:40 1015 29.97 844 24.92 -4.1 24.6 92 -5.3 22.5
01:45 1015 29.97 844 24.92 -4.2 24.4 92 -5.3 22.4
01:50 1015 29.97 844 24.92 -4.3 24.3 92 -5.4 22.3
01:55 1015 29.97 844 24.92 -4.2 24.4 92 -5.3 22.4
02:00 1015 29.97 844 24.92 -4.3 24.3 92 -5.4 22.4
02:05 1015 29.97 844 24.92 -4.3 24.2 92 -5.4 22.2
02:10 1015 29.97 844 24.92 -4.3 24.2 93 -5.3 22.4
02:15 1015 29.97 844 24.92 -4.3 24.3 92 -5.4 22.3
02:20 1015 29.97 844 24.92 -4.3 24.2 93 -5.4 22.3
02:25 1015 29.97 844 24.92 -4.3 24.3 92 -5.4 22.4
02:30 1015 29.97 844 24.92 -4.3 24.2 92 -5.4 22.3
02:35 1015 29.97 844 24.92 -4.3 24.2 92 -5.4 22.2
02:40 1015 29.97 844 24.92 -4.4 24.1 92 -5.5 22.1
02:45 1015 29.97 844 24.92 -4.3 24.2 92 -5.4 22.3
02:50 1015 29.97 844 24.92 -4.3 24.3 92 -5.4 22.3
02:55 1015 29.97 844 24.92 -4.2 24.4 92 -5.4 22.3
03:00 1015 29.97 844 24.92 -4.2 24.5 92 -5.3 22.4
03:05 1015 29.97 844 24.92 -4.2 24.4 92 -5.4 22.3
03:10 1015 29.97 844 24.92 -4.3 24.3 92 -5.4 22.2
03:15 1015 29.97 844 24.92 -4.3 24.3 92 -5.5 22.2
03:20 1015 29.97 844 24.92 -4.3 24.3 92 -5.4 22.2
03:25 1015 29.97 844 24.92 -4.2 24.4 92 -5.4 22.3
03:30 1015 29.97 844 24.92 -4.2 24.5 91 -5.4 22.3
03:35 1015 29.97 845 24.95 -4.2 24.5 92 -5.4 22.4
03:40 1015 29.97 845 24.95 -4.1 24.6 91 -5.3 22.4
03:45 1015 29.97 845 24.95 -4.1 24.6 91 -5.4 22.4
03:50 1016 30 845 24.95 -4.1 24.6 91 -5.3 22.4
03:55 1016 30 845 24.95 -4.1 24.7 91 -5.3 22.5
04:00 1016 30 845 24.95 -4 24.8 91 -5.2 22.6
04:05 1016 30 845 24.95 -3.8 25.1 91 -5.1 22.8
04:10 1016 30 845 24.95 -3.8 25.2 91 -5.1 22.8
04:15 1016 30 845 24.95 -3.8 25.2 91 -5.1 22.9
04:20 1016 30 845 24.95 -3.7 25.3 90 -5.2 22.7
04:25 1016 30 845 24.95 -3.7 25.3 89 -5.2 22.6
04:30 1016 30 845 24.95 -3.8 25.2 90 -5.2 22.6
04:35 1016 30 845 24.95 -3.7 25.3 90 -5.2 22.7
04:40 1016 30 845 24.95 -3.6 25.5 89 -5.2 22.7
04:45 1016 30 845 24.95 -3.4 25.9 88 -5.1 22.9
04:50 1016 30 845 24.95 -3.2 26.2 88 -5 23
04:55 1016 30 845 24.95 -3.1 26.5 87 -4.9 23.2
05:00 1016 30 845 24.95 -2.9 26.8 87 -4.8 23.3
05:05 1016 30 845 24.95 -3 26.6 87 -4.9 23.2
05:10 1016 30 845 24.95 -3.2 26.2 88 -5 23.1
05:15 1016 30 845 24.95 -3.1 26.4 87 -4.9 23.1
05:20 1016 30 845 24.95 -3 26.6 87 -4.9 23.2
05:25 1016 30 845 24.95 -2.8 26.9 86 -4.8 23.3
05:30 1016 30 845 24.95 -2.7 27.1 85 -4.8 23.3
05:35 1016 30 845 24.95 -2.6 27.3 85 -4.8 23.4
05:40 1016 30 845 24.95 -2.6 27.4 84 -4.9 23.2
05:45 1016 30 845 24.95 -2.5 27.5 84 -4.9 23.2
05:50 1016 30 845 24.95 -2.3 27.9 83 -4.8 23.3
05:55 1016 30 845 24.95 -2.5 27.5 85 -4.7 23.6
06:00 1016 30 845 24.95 -2.8 26.9 86 -4.8 23.4
06:05 1016 30 845 24.95 -2.6 27.4 85 -4.7 23.5
06:10 1016 30 846 24.98 -2.9 26.7 87 -4.8 23.4
06:15 1016 30 846 24.98 -3.2 26.2 88 -4.9 23.1
06:20 1016 30 846 24.98 -3.2 26.3 88 -4.9 23.2
06:25 1016 30 846 24.98 -3.1 26.5 88 -4.8 23.4
06:30 1016 30 846 24.98 -2.8 27 86 -4.8 23.4
06:35 1016 30 846 24.98 -2.5 27.5 85 -4.7 23.6
06:40 1016 30 846 24.98 -2.3 27.8 84 -4.7 23.6
06:45 1016 30 846 24.98 -2.3 27.8 84 -4.7 23.6
06:50 1016 30 846 24.98 -2.3 27.9 84 -4.7 23.6
06:55 1016 30 846 24.98 -2.3 27.9 83 -4.7 23.5
07:00 1016 30 846 24.98 -2.1 28.2 82 -4.8 23.4
07:05 1017 30.03 846 24.98 -2 28.4 82 -4.8 23.4
07:10 1017 30.03 846 24.98 -2.3 27.9 85 -4.5 23.8
07:15 1017 30.03 846 24.98 -2.5 27.5 86 -4.6 23.8
07:20 1017 30.03 846 24.98 -2 28.4 83 -4.5 23.9
07:25 1017 30.03 846 24.98 -2 28.4 82 -4.7 23.6
07:30 1017 30.03 846 24.98 -2.1 28.1 83 -4.7 23.5
07:35 1017 30.03 846 24.98 -2.3 27.9 83 -4.8 23.4
07:40 1017 30.03 846 24.98 -2.3 27.8 83 -4.8 23.3
07:45 1017 30.03 846 24.98 -2.3 27.9 83 -4.8 23.3
07:50 1017 30.03 846 24.98 -2.2 28 82 -4.8 23.3
07:55 1017 30.03 846 24.98 -2 28.4 81 -4.9 23.1
08:00 1017 30.03 846 24.98 -1.6 29.1 79 -4.8 23.4
08:05 1017 30.03 846 24.98 -1.4 29.4 77 -4.9 23.2
08:10 1017 30.03 846 24.98 -1.1 30 76 -4.8 23.3
08:15 1017 30.03 846 24.98 -1 30.2 76 -4.8 23.3
08:20 1017 30.03 846 24.98 -0.9 30.4 75 -4.8 23.4
08:25 1017 30.03 846 24.98 -0.9 30.4 76 -4.6 23.7
08:30 1017 30.03 846 24.98 -1.2 29.9 77 -4.6 23.7
08:35 1017 30.03 846 24.98 -1.4 29.5 77 -4.8 23.3
08:40 1017 30.03 846 24.98 -1.3 29.7 76 -4.9 23.2
08:45 1017 30.03 846 24.98 -1 30.2 75 -4.9 23.2
08:50 1017 30.03 847 25.01 -0.9 30.4 77 -4.5 23.9
08:55 1017 30.03 847 25.01 -0.6 30.9 73 -4.8 23.3
09:00 1017 30.03 847 25.01 -0.4 31.3 74 -4.5 24
09:05 1017 30.03 847 25.01 -0.4 31.3 72 -4.8 23.3
09:10 1017 30.03 847 25.01 -0.3 31.5 72 -4.7 23.5
09:15 1017 30.03 847 25.01 -0.2 31.6 71 -4.8 23.3
09:20 1018 30.06 847 25.01 -0.3 31.5 73 -4.5 23.9
09:25 1018 30.06 847 25.01 -0.3 31.4 71 -4.9 23.2
09:30 1018 30.06 847 25.01 -0.1 31.9 71 -4.7 23.5
09:35 1018 30.06 847 25.01 -0 32 70 -4.9 23.2
09:40 1018 30.06 847 25.01 0.1 32.2 70 -4.8 23.3
09:45 1018 30.06 847 25.01 0.2 32.4 73 -4.1 24.7
09:50 1018 30.06 847 25.01 0.4 32.7 70 -4.5 23.8
09:55 1018 30.06 847 25.01 0.4 32.8 68 -4.8 23.4
10:00 1018 30.06 847 25.01 0.5 33 68 -4.7 23.5
10:05 1018 30.06 847 25.01 0.6 33 68 -4.6 23.8
10:10 1018 30.06 847 25.01 0.6 33 68 -4.7 23.5
10:15 1018 30.06 847 25.01 0.7 33.2 67 -4.7 23.6
10:20 1018 30.06 847 25.01 0.8 33.5 67 -4.6 23.6
10:25 1018 30.06 847 25.01 1 33.8 67 -4.5 23.9
10:30 1018 30.06 847 25.01 1 33.9 67 -4.5 24
10:35 1018 30.06 847 25.01 1 33.9 67 -4.4 24.1
10:40 1018 30.06 847 25.01 0.8 33.4 69 -4.3 24.3
10:45 1018 30.06 847 25.01 0.8 33.4 68 -4.5 23.9
10:50 1018 30.06 847 25.01 0.8 33.5 67 -4.6 23.7
10:55 1018 30.06 847 25.01 1 33.9 67 -4.4 24
11:00 1018 30.06 847 25.01 1.2 34.2 65 -4.6 23.8
11:05 1018 30.06 847 25.01 1.4 34.5 65 -4.5 23.9
11:10 1018 30.06 847 25.01 1.4 34.5 66 -4.3 24.2
11:15 1018 30.06 847 25.01 1.5 34.7 66 -4.2 24.5
11:20 1018 30.06 847 25.01 1.7 35.1 64 -4.3 24.2
11:25 1018 30.06 848 25.04 1.7 35.1 65 -4.2 24.5
11:30 1018 30.06 847 25.01 1.5 34.7 66 -4.1 24.6
11:35 1018 30.06 848 25.04 1 33.8 67 -4.5 23.8
11:40 1018 30.06 848 25.04 1.1 33.9 65 -4.7 23.5
11:45 1018 30.06 848 25.04 1.3 34.3 63 -4.9 23.1
11:50 1018 30.06 848 25.04 1.5 34.7 64 -4.7 23.6
11:55 1018 30.06 848 25.04 1.8 35.3 62 -4.7 23.5
12:00 1018 30.06 848 25.04 2.2 35.9 61 -4.5 23.8
12:05 1018 30.06 847 25.01 2.3 36.2 60 -4.8 23.4
12:10 1018 30.06 847 25.01 2.1 35.8 61 -4.7 23.6
12:15 1018 30.06 847 25.01 2.4 36.4 60 -4.6 23.7
12:20 1018 30.06 847 25.01 2.6 36.8 61 -4.2 24.4
12:25 1018 30.06 847 25.01 2.6 36.6 61 -4.2 24.5
12:30 1018 30.06 847 25.01 2.8 37 58 -4.6 23.8
12:35 1018 30.06 847 25.01 3.4 38.1 59 -4 24.9
12:40 1018 30.06 847 25.01 3.3 37.9 57 -4.4 24
12:45 1018 30.06 847 25.01 2.6 36.6 61 -4.2 24.4
12:50 1018 30.06 847 25.01 3 37.3 58 -4.4 24.1
12:55 1018 30.06 847 25.01 3 37.3 60 -4.1 24.6
13:00 1018 30.06 848 25.04 2.5 36.6 62 -4 24.8
13:05 1018 30.06 848 25.04 2.8 37.1 61 -4 24.7
13:10 1018 30.06 848 25.04 3.3 37.9 56 -4.7 23.6
13:15 1018 30.06 848 25.04 3.8 38.9 55 -4.4 24.2
13:20 1018 30.06 847 25.01 4.8 40.6 49 -5 23
13:25 1018 30.06 847 25.01 5.3 41.6 49 -4.6 23.8
13:30 1018 30.06 847 25.01 3.7 38.7 54 -4.7 23.6
13:35 1018 30.06 847 25.01 3.3 38 54 -5.2 22.7
13:40 1018 30.06 847 25.01 3.4 38.1 55 -4.7 23.5
13:45 1018 30.06 847 25.01 2.9 37.2 58 -4.5 23.9
13:50 1018 30.06 847 25.01 2.9 37.2 57 -4.9 23.2
13:55 1018 30.06 847 25.01 2.9 37.2 55 -5.2 22.7
14:00 1018 30.06 847 25.01 2.7 36.9 54 -5.8 21.6
14:05 1018 30.06 847 25.01 3.3 38 51 -6 21.2
14:10 1018 30.06 847 25.01 3.9 39 51 -5.3 22.5
14:15 1018 30.06 847 25.01 4.2 39.5 48 -5.9 21.4
14:20 1017 30.03 847 25.01 4 39.2 49 -5.9 21.4
14:25 1017 30.03 846 24.98 3.3 37.9 51 -5.9 21.3
14:30 1017 30.03 846 24.98 3.8 38.9 51 -5.4 22.3
14:35 1017 30.03 846 24.98 3.6 38.5 50 -5.8 21.5
14:40 1017 30.03 846 24.98 3.3 37.9 50 -6.1 21
14:45 1017 30.03 846 24.98 3.8 38.8 46 -6.8 19.7
14:50 1017 30.03 846 24.98 4.3 39.7 47 -6.2 20.9
14:55 1017 30.03 846 24.98 3.8 38.9 47 -6.4 20.5
15:00 1017 30.03 846 24.98 3.6 38.4 49 -6.3 20.7
15:05 1017 30.03 846 24.98 4.5 40.2 45 -6.3 20.6
15:10 1017 30.03 846 24.98 4.1 39.4 50 -5.4 22.3
15:15 1017 30.03 846 24.98 4.2 39.6 45 -6.8 19.8
15:20 1017 30.03 846 24.98 4.4 39.8 44 -7 19.5
15:25 1017 30.03 846 24.98 4.5 40.1 44 -6.6 20.1
15:30 1017 30.03 846 24.98 3.9 39.1 45 -6.8 19.8
15:35 1016 30 846 24.98 4.2 39.6 45 -6.8 19.8
15:40 1016 30 846 24.98 3.5 38.2 46 -7.2 19
15:45 1016 30 846 24.98 4 39.3 44 -7.3 18.9
15:50 1016 30 846 24.98 4 39.1 45 -6.8 19.7
15:55 1016 30 846 24.98 4.2 39.6 43 -7.4 18.7
16:00 1016 30 846 24.98 5.1 41.2 41 -7 19.3
16:05 1016 30 846 24.98 5 41 46 -5.8 21.6
16:10 1016 30 846 24.98 4.6 40.3 42 -7.1 19.2
16:15 1017 30.03 846 24.98 5.1 41.1 41 -7.1 19.1
16:20 1017 30.03 846 24.98 5.1 41.2 40 -7.2 19
16:25 1016 30 846 24.98 4.6 40.2 43 -7.1 19.3
16:30 1016 30 846 24.98 4 39.3 44 -7.1 19.2
16:35 1016 30 846 24.98 4.6 40.3 41 -7.7 18.2
16:40 1016 30 846 24.98 5.2 41.4 43 -6.3 20.7
16:45 1016 30 845 24.95 4.7 40.4 44 -6.4 20.4
16:50 1016 30 845 24.95 4.1 39.3 48 -5.8 21.5
16:55 1016 30 845 24.95 3.2 37.8 52 -5.8 21.5
17:00 1016 30 845 24.95 2.9 37.2 52 -6.1 21
17:05 1016 30 845 24.95 3.1 37.6 51 -6 21.2
17:10 1016 30 845 24.95 3.1 37.7 51 -6 21.3
17:15 1016 30 845 24.95 2.7 36.9 52 -6.3 20.7
17:20 1016 30 845 24.95 2.6 36.8 51 -6.5 20.3
17:25 1016 30 845 24.95 2.8 37 51 -6.3 20.7
17:30 1016 30 845 24.95 2.7 36.8 51 -6.5 20.3
17:35 1016 30 845 24.95 2.4 36.4 52 -6.4 20.5
17:40 1016 30 845 24.95 2.2 36 53 -6.4 20.6
17:45 1016 30 845 24.95 2 35.7 54 -6.4 20.5
17:50 1016 30 845 24.95 1.7 35 56 -6.2 20.9
17:55 1016 30 845 24.95 1.4 34.4 58 -6.1 21.1
18:00 1016 30 845 24.95 0.9 33.5 59 -6.3 20.6
18:05 1016 30 845 24.95 0.4 32.7 61 -6.3 20.6
18:10 1016 30 845 24.95 -0 32 61 -6.5 20.2
18:15 1016 30 845 24.95 -0.3 31.5 64 -6.4 20.5
18:20 1016 30 845 24.95 -0.4 31.2 65 -6.3 20.7
18:25 1016 30 845 24.95 -0.5 31.1 66 -6 21.1
18:30 1016 30 845 24.95 -0.7 30.7 68 -5.9 21.3
18:35 1016 30 846 24.98 -0.9 30.4 69 -6 21.2
18:40 1016 30 846 24.98 -1.1 30 66 -6.6 20.1
18:45 1016 30 846 24.98 -0.6 31 68 -5.8 21.6
18:50 1016 30 846 24.98 -0.7 30.8 67 -6 21.2
18:55 1016 30 846 24.98 -0.4 31.3 64 -6.4 20.4
19:00 1016 30 846 24.98 -0.1 31.8 60 -6.9 19.6
19:05 1016 30 845 24.95 -0.3 31.5 63 -6.5 20.3
19:10 1016 30 845 24.95 -0.5 31 62 -6.9 19.7
19:15 1016 30 845 24.95 -0.5 31.2 63 -6.7 20
19:20 1016 30 845 24.95 -0.4 31.2 64 -6.4 20.6
19:25 1016 30 845 24.95 -0.3 31.4 65 -6.2 20.9
19:30 1016 30 845 24.95 -0.1 31.8 65 -5.9 21.4
19:35 1016 30 845 24.95 -0.1 31.8 66 -5.8 21.5
19:40 1016 30 845 24.95 0.1 32.2 64 -5.9 21.5
19:45 1016 30 845 24.95 0.2 32.4 61 -6.4 20.5
19:50 1016 30 845 24.95 0.4 32.7 62 -6 21.2
19:55 1016 30 845 24.95 0.3 32.5 63 -5.9 21.4
20:00 1016 30 845 24.95 0.2 32.4 63 -5.9 21.3
20:05 1016 30 845 24.95 0.3 32.6 64 -5.7 21.7
20:10 1016 30 845 24.95 0.4 32.8 63 -5.7 21.7
20:15 1016 30 845 24.95 0.5 32.9 63 -5.8 21.6
20:20 1016 30 845 24.95 0.5 32.9 63 -5.7 21.8
20:25 1015 29.97 845 24.95 0.5 32.9 63 -5.8 21.5
20:30 1015 29.97 844 24.92 0.6 33 62 -5.8 21.5
20:35 1015 29.97 844 24.92 0.6 33.1 62 -5.9 21.5
20:40 1015 29.97 844 24.92 0.7 33.2 62 -5.9 21.4
20:45 1015 29.97 845 24.95 0.8 33.4 61 -5.9 21.5
20:50 1015 29.97 844 24.92 0.8 33.5 61 -6 21.3
20:55 1015 29.97 844 24.92 0.8 33.5 61 -5.8 21.5
21:00 1015 29.97 844 24.92 0.8 33.4 62 -5.8 21.5
21:05 1015 29.97 844 24.92 0.8 33.4 61 -5.8 21.5
21:10 1015 29.97 844 24.92 0.7 33.2 62 -5.8 21.5
21:15 1015 29.97 844 24.92 0.7 33.2 62 -5.9 21.5
21:20 1015 29.97 844 24.92 0.8 33.4 60 -6.1 21.1
21:25 1015 29.97 844 24.92 0.8 33.5 61 -5.9 21.3
21:30 1015 29.97 844 24.92 0.8 33.5 60 -6 21.3
21:35 1015 29.97 844 24.92 0.9 33.6 59 -6.1 20.9
21:40 1015 29.97 844 24.92 1 33.7 58 -6.4 20.5
21:45 1015 29.97 844 24.92 1.1 34 59 -6.1 21
21:50 1015 29.97 844 24.92 1.1 34 59 -6.1 21.1
21:55 1015 29.97 844 24.92 1.1 33.9 59 -6.1 20.9
22:00 1015 29.97 844 24.92 1.1 33.9 59 -6 21.2
22:05 1015 29.97 844 24.92 1 33.9 59 -6.1 21
22:10 1015 29.97 844 24.92 1 33.9 59 -6.1 21.1
22:15 1015 29.97 844 24.92 1.2 34.1 58 -6.1 21
22:20 1015 29.97 844 24.92 1.2 34.2 59 -5.8 21.5
22:25 1015 29.97 844 24.92 1.2 34.2 59 -5.9 21.4
22:30 1015 29.97 844 24.92 1.3 34.3 60 -5.7 21.7
22:35 1014 29.94 844 24.92 1.3 34.3 60 -5.8 21.6
22:40 1014 29.94 844 24.92 1.3 34.3 60 -5.7 21.7
22:45 1014 29.94 844 24.92 1.3 34.3 60 -5.7 21.7
22:50 1014 29.94 844 24.92 1.3 34.3 60 -5.7 21.7
22:55 1014 29.94 844 24.92 1.3 34.3 60 -5.7 21.7
23:00 1014 29.94 844 24.92 1.3 34.3 60 -5.6 21.9
23:05 1014 29.94 844 24.92 1.3 34.3 60 -5.5 22
23:10 1014 29.94 843 24.89 1.2 34.1 61 -5.4 22.2
23:15 1014 29.94 843 24.89 1.1 33.9 63 -5.1 22.8
23:20 1014 29.94 843 24.89 0.7 33.3 66 -4.9 23.2
23:25 1014 29.94 843 24.89 0.3 32.6 70 -4.5 24
23:30 1014 29.94 843 24.89 0.3 32.5 69 -4.8 23.4
23:35 1014 29.94 843 24.89 0.3 32.5 66 -5.3 22.5
23:40 1014 29.94 843 24.89 0.1 32.3 65 -5.7 21.7
23:45 1014 29.94 843 24.89 0.2 32.4 65 -5.7 21.8
23:50 1014 29.94 843 24.89 0.2 32.4 66 -5.5 22.1
23:55 1014 29.94 843 24.89 0.1 32.2 65 -5.7 21.7
24:00 1014 29.94 843 24.89 0.3 32.5 65 -5.6 21.9